James Clark Ross — ZDLP — position and weather

sailwx.info

Track history (hours):
 
Tides and Currents Weather Stations Pressure Air Temp Water Temp Dewpoint Dewpoint Depression Visibility Wind Speed Wind Dir Waves Ship Positions

Oceanographic research ship James Clark Ross (UK)

Detailed information on ship capabilities available from University of Delaware's Ocean Information Center and ARCUS's ALIAS (Arctic Logistics Information and Support) project.

Last reported at 2020-Aug-13 10:00 UTC. Time now 2020-Aug-13 11:18 UTC.
Position N 51°57' E 001°15'.

Length 99 m; beam 18.8 m; draft 6.3 m.

Type: Ship. MMSI: 740339000.

Date/timePositionNaut miles runAvg speedWind from/ knotsBaromVisibWave heightAir tempDewpointWater temp
2020-Aug-13 10:00N 51°57' E 001°15'0 0.0
2020-Aug-13 08:30N 51°57' E 001°15'0 0.0
2020-Aug-13 07:30N 51°57' E 001°15'0 0.0
2020-Aug-13 06:30N 51°57' E 001°15'0 0.0
2020-Aug-13 06:00N 51°57' E 001°15'0 0.0
2020-Aug-13 05:00N 51°57' E 001°15'0 0.0
2020-Aug-13 03:00N 51°57' E 001°15'0 0.0
2020-Aug-13 02:30N 51°57' E 001°15'0 0.0
2020-Aug-13 00:30N 51°57' E 001°15'0 0.0
2020-Aug-12 23:00N 51°57' E 001°15'0 0.0
2020-Aug-12 21:30N 51°57' E 001°15'0 0.0
2020-Aug-12 21:00N 51°57' E 001°15'0 0.0
2020-Aug-12 20:30N 51°57' E 001°15'0 0.0
2020-Aug-12 17:00N 51°57' E 001°15'0 0.0
2020-Aug-12 15:00N 51°57' E 001°15'0 0.1
2020-Aug-12 14:00N 51°57' E 001°15'10 6.7
2020-Aug-12 12:31N 51°57' E 001°31'17 8.3
2020-Aug-12 10:31N 52°11' E 001°47'5 9.3
2020-Aug-12 10:00N 52°15' E 001°51'18 9.0
2020-Aug-12 08:01N 52°30' E 002°06'13 9.0
2020-Aug-12 06:31N 52°41' E 002°18'3510.1
2020-Aug-12 03:01N 53°15' E 002°35'510.7
2020-Aug-12 02:31N 53°21' E 002°37'3110.3
2020-Aug-11 23:30N 53°51' E 002°43'5 9.5
2020-Aug-11 23:01N 53°55' E 002°49'100 9.9
2020-Aug-11 12:55N 55°09' E 004°44'14 9.8
2020-Aug-11 11:29N 55°20' E 005°01'16 9.9
2020-Aug-11 09:50N 55°32' E 005°20'310.8
2020-Aug-11 09:31N 55°34' E 005°24'2710.7
2020-Aug-11 07:00N 55°55' E 005°55'1110.8
2020-Aug-11 06:00N 56°03' E 006°08'1110.9
2020-Aug-11 05:00N 56°11' E 006°22'4310.8
2020-Aug-11 01:00N 56°43' E 007°13'1010.4
2020-Aug-11 00:00N 56°51' E 007°26'2610.4
2020-Aug-10 21:31N 57°10' E 007°59'3710.6
2020-Aug-10 18:00N 57°34' E 008°51'5710.3
2020-Aug-10 12:30N 57°51' E 010°32'27 7.7
2020-Aug-10 09:00N 57°24' E 010°37'3 5.6
2020-Aug-10 08:28N 57°26' E 010°33'0 0.0
2020-Aug-10 00:28N 57°26' E 010°33'0 0.0
2020-Aug-09 23:28N 57°26' E 010°33'0 0.0
2020-Aug-09 19:58N 57°26' E 010°33'0 0.0
2020-Aug-09 18:28N 57°26' E 010°33'0 0.0
2020-Aug-09 16:19N 57°26' E 010°33'0 0.0
2020-Aug-09 14:49N 57°26' E 010°33'0 0.0
2020-Aug-09 12:28N 57°26' E 010°33'0 0.0
2020-Aug-09 10:49N 57°26' E 010°33'0 0.0
2020-Aug-09 09:28N 57°26' E 010°33'0 0.0
2020-Aug-09 07:22N 57°26' E 010°33'0 0.0
2020-Aug-09 06:58N 57°26' E 010°33'0 0.0
2020-Aug-09 05:28N 57°26' E 010°33'0 0.0
2020-Aug-09 04:28N 57°26' E 010°33'0 0.0
2020-Aug-08 23:28N 57°26' E 010°33'0 0.0
2020-Aug-08 22:13N 57°26' E 010°33'0 0.0
2020-Aug-08 21:19N 57°26' E 010°33'0 0.0
2020-Aug-08 17:25N 57°26' E 010°33'3 1.1
2020-Aug-08 14:30N 57°25' E 010°38'6 4.0
2020-Aug-08 13:01N 57°27' E 010°48'9 5.7
2020-Aug-08 11:30N 57°26' E 010°33'0 0.0
2020-Aug-08 11:00N 57°26' E 010°33'0 0.0
2020-Aug-08 09:30N 57°26' E 010°33'0 0.0
2020-Aug-08 09:00N 57°26' E 010°33'0 0.0
2020-Aug-08 08:00N 57°26' E 010°33'0 0.0
2020-Aug-08 04:54N 57°26' E 010°33'0 0.0
2020-Aug-08 04:00N 57°26' E 010°33'0 0.0
2020-Aug-08 03:30N 57°26' E 010°33'0 0.0
2020-Aug-08 02:57N 57°26' E 010°33'0 0.0
2020-Aug-08 00:57N 57°26' E 010°33'0 0.0
2020-Aug-08 00:00N 57°26' E 010°33'0 0.0
2020-Aug-07 22:00N 57°26' E 010°33'0 0.0
2020-Aug-07 19:27N 57°26' E 010°33'0 0.0
2020-Aug-07 17:30N 57°26' E 010°33'0 0.0
2020-Aug-07 16:30N 57°26' E 010°33'0 0.0
2020-Aug-07 14:00N 57°26' E 010°33'0 0.0
2020-Aug-07 13:00N 57°26' E 010°33'0 0.0
2020-Aug-07 12:21N 57°26' E 010°33'0 0.0
2020-Aug-07 10:30N 57°26' E 010°33'0 0.0
2020-Aug-07 10:00N 57°26' E 010°33'0 0.0
2020-Aug-07 06:30N 57°26' E 010°33'0 0.0
2020-Aug-07 04:57N 57°26' E 010°33'0 0.0
2020-Aug-07 04:30N 57°26' E 010°33'0 0.0
2020-Aug-07 03:57N 57°26' E 010°33'0 0.0
2020-Aug-07 03:30N 57°26' E 010°33'0 0.0
2020-Aug-07 00:48N 57°26' E 010°33'0 0.0
2020-Aug-06 23:30N 57°26' E 010°33'0 0.0
2020-Aug-06 21:27N 57°26' E 010°33'0 0.0
2020-Aug-06 20:00N 57°26' E 010°33'0 0.0
2020-Aug-06 16:00N 57°26' E 010°33'0 0.0
2020-Aug-06 13:27N 57°26' E 010°33'0 0.0
2020-Aug-06 06:00N 57°26' E 010°33'0 0.0
2020-Aug-06 05:30N 57°26' E 010°33'0 0.0
2020-Aug-06 04:27N 57°26' E 010°33'0 0.0
2020-Aug-06 03:57N 57°26' E 010°33'0 0.0
2020-Aug-06 01:33N 57°26' E 010°33'0 0.0
2020-Aug-06 01:09N 57°26' E 010°33'  
Track history (hours):
 
Tides and Currents Weather Stations Pressure Air Temp Water Temp Dewpoint Dewpoint Depression Visibility Wind Speed Wind Dir Waves Ship Positions

Oceanographic research ship James Clark Ross (UK)

Detailed information on ship capabilities available from University of Delaware's Ocean Information Center and ARCUS's ALIAS (Arctic Logistics Information and Support) project.

Last reported at 2020-Aug-13 10:00 UTC. Time now 2020-Aug-13 11:18 UTC.
Position N 51°57' E 001°15'.

Length 99 m; beam 18.8 m; draft 6.3 m.

Type: Ship. MMSI: 740339000.

Date/timePositionNaut miles runAvg speedWind from/ knotsBaromVisibWave heightAir tempDewpointWater temp
2020-Aug-13 10:00N 51°57' E 001°15'0 0.0
2020-Aug-13 08:30N 51°57' E 001°15'0 0.0
2020-Aug-13 07:30N 51°57' E 001°15'0 0.0
2020-Aug-13 06:30N 51°57' E 001°15'0 0.0
2020-Aug-13 06:00N 51°57' E 001°15'0 0.0
2020-Aug-13 05:00N 51°57' E 001°15'0 0.0
2020-Aug-13 03:00N 51°57' E 001°15'0 0.0
2020-Aug-13 02:30N 51°57' E 001°15'0 0.0
2020-Aug-13 00:30N 51°57' E 001°15'0 0.0
2020-Aug-12 23:00N 51°57' E 001°15'0 0.0
2020-Aug-12 21:30N 51°57' E 001°15'0 0.0
2020-Aug-12 21:00N 51°57' E 001°15'0 0.0
2020-Aug-12 20:30N 51°57' E 001°15'0 0.0
2020-Aug-12 17:00N 51°57' E 001°15'0 0.0
2020-Aug-12 15:00N 51°57' E 001°15'0 0.1
2020-Aug-12 14:00N 51°57' E 001°15'10 6.7
2020-Aug-12 12:31N 51°57' E 001°31'17 8.3
2020-Aug-12 10:31N 52°11' E 001°47'5 9.3
2020-Aug-12 10:00N 52°15' E 001°51'18 9.0
2020-Aug-12 08:01N 52°30' E 002°06'13 9.0
2020-Aug-12 06:31N 52°41' E 002°18'3510.1
2020-Aug-12 03:01N 53°15' E 002°35'510.7
2020-Aug-12 02:31N 53°21' E 002°37'3110.3
2020-Aug-11 23:30N 53°51' E 002°43'5 9.5
2020-Aug-11 23:01N 53°55' E 002°49'100 9.9
2020-Aug-11 12:55N 55°09' E 004°44'14 9.8
2020-Aug-11 11:29N 55°20' E 005°01'16 9.9
2020-Aug-11 09:50N 55°32' E 005°20'310.8
2020-Aug-11 09:31N 55°34' E 005°24'2710.7
2020-Aug-11 07:00N 55°55' E 005°55'1110.8
2020-Aug-11 06:00N 56°03' E 006°08'1110.9
2020-Aug-11 05:00N 56°11' E 006°22'4310.8
2020-Aug-11 01:00N 56°43' E 007°13'1010.4
2020-Aug-11 00:00N 56°51' E 007°26'2610.4
2020-Aug-10 21:31N 57°10' E 007°59'3710.6
2020-Aug-10 18:00N 57°34' E 008°51'5710.3
2020-Aug-10 12:30N 57°51' E 010°32'27 7.7
2020-Aug-10 09:00N 57°24' E 010°37'3 5.6
2020-Aug-10 08:28N 57°26' E 010°33'0 0.0
2020-Aug-10 00:28N 57°26' E 010°33'0 0.0
2020-Aug-09 23:28N 57°26' E 010°33'0 0.0
2020-Aug-09 19:58N 57°26' E 010°33'0 0.0
2020-Aug-09 18:28N 57°26' E 010°33'0 0.0
2020-Aug-09 16:19N 57°26' E 010°33'0 0.0
2020-Aug-09 14:49N 57°26' E 010°33'0 0.0
2020-Aug-09 12:28N 57°26' E 010°33'0 0.0
2020-Aug-09 10:49N 57°26' E 010°33'0 0.0
2020-Aug-09 09:28N 57°26' E 010°33'0 0.0
2020-Aug-09 07:22N 57°26' E 010°33'0 0.0
2020-Aug-09 06:58N 57°26' E 010°33'0 0.0
2020-Aug-09 05:28N 57°26' E 010°33'0 0.0
2020-Aug-09 04:28N 57°26' E 010°33'0 0.0
2020-Aug-08 23:28N 57°26' E 010°33'0 0.0
2020-Aug-08 22:13N 57°26' E 010°33'0 0.0
2020-Aug-08 21:19N 57°26' E 010°33'0 0.0
2020-Aug-08 17:25N 57°26' E 010°33'3 1.1
2020-Aug-08 14:30N 57°25' E 010°38'6 4.0
2020-Aug-08 13:01N 57°27' E 010°48'9 5.7
2020-Aug-08 11:30N 57°26' E 010°33'0 0.0
2020-Aug-08 11:00N 57°26' E 010°33'0 0.0
2020-Aug-08 09:30N 57°26' E 010°33'0 0.0
2020-Aug-08 09:00N 57°26' E 010°33'0 0.0
2020-Aug-08 08:00N 57°26' E 010°33'0 0.0
2020-Aug-08 04:54N 57°26' E 010°33'0 0.0
2020-Aug-08 04:00N 57°26' E 010°33'0 0.0
2020-Aug-08 03:30N 57°26' E 010°33'0 0.0
2020-Aug-08 02:57N 57°26' E 010°33'0 0.0
2020-Aug-08 00:57N 57°26' E 010°33'0 0.0
2020-Aug-08 00:00N 57°26' E 010°33'0 0.0
2020-Aug-07 22:00N 57°26' E 010°33'0 0.0
2020-Aug-07 19:27N 57°26' E 010°33'0 0.0
2020-Aug-07 17:30N 57°26' E 010°33'0 0.0
2020-Aug-07 16:30N 57°26' E 010°33'0 0.0
2020-Aug-07 14:00N 57°26' E 010°33'0 0.0
2020-Aug-07 13:00N 57°26' E 010°33'0 0.0
2020-Aug-07 12:21N 57°26' E 010°33'0 0.0
2020-Aug-07 10:30N 57°26' E 010°33'0 0.0
2020-Aug-07 10:00N 57°26' E 010°33'0 0.0
2020-Aug-07 06:30N 57°26' E 010°33'0 0.0
2020-Aug-07 04:57N 57°26' E 010°33'0 0.0
2020-Aug-07 04:30N 57°26' E 010°33'0 0.0
2020-Aug-07 03:57N 57°26' E 010°33'0 0.0
2020-Aug-07 03:30N 57°26' E 010°33'0 0.0
2020-Aug-07 00:48N 57°26' E 010°33'0 0.0
2020-Aug-06 23:30N 57°26' E 010°33'0 0.0
2020-Aug-06 21:27N 57°26' E 010°33'0 0.0
2020-Aug-06 20:00N 57°26' E 010°33'0 0.0
2020-Aug-06 16:00N 57°26' E 010°33'0 0.0
2020-Aug-06 13:27N 57°26' E 010°33'0 0.0
2020-Aug-06 06:00N 57°26' E 010°33'0 0.0
2020-Aug-06 05:30N 57°26' E 010°33'0 0.0
2020-Aug-06 04:27N 57°26' E 010°33'0 0.0
2020-Aug-06 03:57N 57°26' E 010°33'0 0.0
2020-Aug-06 01:33N 57°26' E 010°33'0 0.0
2020-Aug-06 01:09N 57°26' E 010°33'  

Dump ship's entire track history